createdAt,value
2022-12-12T00:01:48.529Z,26.95
2022-12-12T00:04:15.378Z,26.65
2022-12-12T00:06:42.061Z,25.77
2022-12-12T00:09:09.624Z,24.20
2022-12-12T00:11:36.843Z,24.85
2022-12-12T00:14:04.305Z,25.70
2022-12-12T00:16:31.013Z,24.63
2022-12-12T00:18:57.663Z,25.50
2022-12-12T00:21:27.157Z,21.10
2022-12-12T00:23:55.144Z,26.27
2022-12-12T00:26:27.247Z,22.60
2022-12-12T00:28:54.561Z,25.27
2022-12-12T00:31:21.712Z,22.13
2022-12-12T00:33:51.788Z,23.20
2022-12-12T00:36:21.591Z,24.20
2022-12-12T00:38:48.652Z,24.33
2022-12-12T00:41:15.567Z,24.25
2022-12-12T00:43:43.172Z,24.50
2022-12-12T00:46:14.576Z,23.88
2022-12-12T00:48:41.325Z,24.17
2022-12-12T00:51:10.396Z,27.92
2022-12-12T00:53:38.546Z,26.38
2022-12-12T00:56:06.088Z,26.40
2022-12-12T00:58:33.721Z,26.75
2022-12-12T01:01:06.544Z,24.52
2022-12-12T01:03:35.085Z,27.60
2022-12-12T01:06:04.574Z,26.13
2022-12-12T01:08:31.284Z,24.38
2022-12-12T01:10:57.986Z,24.42
2022-12-12T01:13:25.403Z,24.45
2022-12-12T01:15:52.123Z,21.38
2022-12-12T01:18:19.362Z,21.65
2022-12-12T01:20:46.451Z,25.92
2022-12-12T01:23:13.699Z,23.13
2022-12-12T01:25:40.770Z,22.65
2022-12-12T01:28:07.886Z,20.92
2022-12-12T01:30:34.704Z,23.30
2022-12-12T01:33:01.474Z,22.73
2022-12-12T01:35:28.214Z,21.60
2022-12-12T01:37:54.938Z,21.63
2022-12-12T01:40:28.657Z,24.75
2022-12-12T01:42:55.574Z,21.55
2022-12-12T01:46:02.774Z,22.88
2022-12-12T01:48:34.954Z,19.45
2022-12-12T01:51:04.732Z,20.65
2022-12-12T01:53:32.644Z,23.13
2022-12-12T01:56:03.439Z,20.70
2022-12-12T01:58:30.856Z,20.80
2022-12-12T02:00:57.692Z,23.00
2022-12-12T02:03:25.189Z,20.33
2022-12-12T02:05:56.447Z,22.13
2022-12-12T02:08:23.879Z,21.58
2022-12-12T02:10:51.334Z,21.85
2022-12-12T02:13:28.889Z,20.15
2022-12-12T02:16:32.881Z,23.23
2022-12-12T02:19:53.138Z,18.95
2022-12-12T02:22:28.838Z,19.65
2022-12-12T02:25:01.275Z,19.75
2022-12-12T02:30:14.812Z,19.00
2022-12-12T02:32:54.679Z,16.52
2022-12-12T02:35:31.189Z,21.27
2022-12-12T02:38:04.102Z,19.40
2022-12-12T02:43:06.505Z,22.33
2022-12-12T02:45:39.859Z,19.63
2022-12-12T02:48:29.864Z,19.30
2022-12-12T02:50:59.121Z,20.75
2022-12-12T02:53:25.769Z,20.48
2022-12-12T02:56:06.508Z,21.98
2022-12-12T02:58:36.455Z,20.98
2022-12-12T03:01:31.027Z,20.13
2022-12-12T03:04:25.125Z,21.10
2022-12-12T03:07:28.728Z,18.33
2022-12-12T03:10:01.960Z,19.02
2022-12-12T03:12:51.038Z,18.50
2022-12-12T03:15:26.278Z,18.77
2022-12-12T03:18:21.846Z,19.98
2022-12-12T03:20:55.930Z,22.77
2022-12-12T03:23:28.320Z,18.90
2022-12-12T03:26:03.441Z,23.00
2022-12-12T03:28:54.845Z,21.27
2022-12-12T03:31:28.716Z,21.98
2022-12-12T03:34:02.071Z,26.15
2022-12-12T03:37:03.778Z,25.05
2022-12-12T03:39:42.829Z,27.67
2022-12-12T03:42:18.481Z,22.63
2022-12-12T03:45:05.813Z,23.88
2022-12-12T03:47:43.503Z,27.67
2022-12-12T03:50:22.153Z,24.98
2022-12-12T03:53:02.101Z,27.55
2022-12-12T03:55:56.923Z,24.85
2022-12-12T03:58:37.445Z,23.60
2022-12-12T04:01:07.949Z,17.88
2022-12-12T04:04:00.704Z,26.83
2022-12-12T04:06:30.406Z,22.83
2022-12-12T04:09:19.567Z,25.58
2022-12-12T04:12:17.800Z,20.65
2022-12-12T04:15:22.774Z,24.92
2022-12-12T04:18:28.991Z,27.15
2022-12-12T04:21:21.615Z,25.38
2022-12-12T04:24:05.703Z,26.27
2022-12-12T04:26:39.651Z,21.45
2022-12-12T04:29:24.740Z,20.52
2022-12-12T04:32:13.988Z,22.38
2022-12-12T04:34:47.263Z,19.92
2022-12-12T04:37:18.547Z,21.10
2022-12-12T04:39:48.633Z,23.65
2022-12-12T04:42:18.792Z,23.90
2022-12-12T04:44:47.293Z,22.38
2022-12-12T04:47:15.715Z,20.60
2022-12-12T04:49:46.194Z,18.23
2022-12-12T04:52:15.339Z,21.35
2022-12-12T04:54:49.677Z,23.42
2022-12-12T04:57:26.066Z,23.40
2022-12-12T04:59:52.798Z,22.05
2022-12-12T05:02:39.762Z,20.33
2022-12-12T05:05:23.861Z,25.17
2022-12-12T05:07:58.049Z,19.90
2022-12-12T05:10:25.273Z,27.17
2022-12-12T05:12:58.292Z,25.20
2022-12-12T05:15:26.089Z,17.63
2022-12-12T05:18:07.545Z,17.73
2022-12-12T05:20:34.739Z,26.48
2022-12-12T05:23:01.401Z,21.58
2022-12-12T05:25:28.081Z,20.15
2022-12-12T05:27:54.694Z,25.67
2022-12-12T05:30:21.749Z,25.90
2022-12-12T05:32:48.582Z,26.65
2022-12-12T05:35:15.539Z,19.70
2022-12-12T05:37:45.486Z,17.55
2022-12-12T05:40:17.120Z,17.65
2022-12-12T05:42:44.060Z,15.30
2022-12-12T05:45:11.774Z,21.73
2022-12-12T05:47:38.694Z,18.85
2022-12-12T05:50:06.052Z,17.98
2022-12-12T05:52:32.892Z,17.50
2022-12-12T05:57:32.292Z,17.27
2022-12-12T05:59:58.946Z,21.42
2022-12-12T06:02:25.733Z,13.30
2022-12-12T06:04:52.486Z,17.52
2022-12-12T06:07:19.152Z,16.73
2022-12-12T06:09:45.874Z,17.65
2022-12-12T06:12:12.752Z,19.70
2022-12-12T06:14:39.497Z,19.95
2022-12-12T06:17:06.201Z,15.68
2022-12-12T06:19:33.545Z,19.48
2022-12-12T06:22:00.165Z,16.65
2022-12-12T06:24:27.167Z,16.17
2022-12-12T06:26:54.035Z,14.73
2022-12-12T06:29:20.983Z,15.13
2022-12-12T06:31:47.962Z,16.10
2022-12-12T06:34:14.791Z,16.83
2022-12-12T06:36:41.447Z,15.02
2022-12-12T06:39:08.270Z,14.77
2022-12-12T06:41:37.280Z,15.43
2022-12-12T06:44:04.499Z,15.88
2022-12-12T06:46:31.418Z,16.00
2022-12-12T06:48:58.694Z,15.18
2022-12-12T06:51:29.329Z,18.23
2022-12-12T06:53:56.773Z,15.82
2022-12-12T06:56:26.122Z,14.50
2022-12-12T06:58:54.168Z,18.30
2022-12-12T07:01:22.984Z,14.23
2022-12-12T07:03:51.814Z,16.08
2022-12-12T07:06:20.737Z,16.73
2022-12-12T07:08:48.547Z,16.63
2022-12-12T07:11:21.349Z,21.92
2022-12-12T07:13:47.997Z,24.38
2022-12-12T07:16:14.945Z,18.70
2022-12-12T07:18:42.059Z,16.77
2022-12-12T07:21:12.978Z,21.58
2022-12-12T07:23:39.698Z,17.55
2022-12-12T07:26:11.808Z,20.50
2022-12-12T07:28:38.717Z,17.38
2022-12-12T07:31:07.455Z,17.38
2022-12-12T07:33:43.129Z,19.63
2022-12-12T07:36:11.089Z,20.55
2022-12-12T07:38:37.866Z,17.85
2022-12-12T07:41:06.591Z,15.93
2022-12-12T07:43:41.414Z,20.98
2022-12-12T07:46:11.838Z,19.20
2022-12-12T07:48:38.486Z,17.67
2022-12-12T07:51:05.277Z,17.45
2022-12-12T07:53:32.197Z,22.58
2022-12-12T07:55:59.076Z,22.65
2022-12-12T07:58:25.825Z,20.40
2022-12-12T08:00:52.565Z,17.63
2022-12-12T08:03:19.265Z,20.00
2022-12-12T08:05:45.966Z,19.52
2022-12-12T08:08:12.666Z,20.05
2022-12-12T08:10:40.754Z,17.35
2022-12-12T08:13:08.694Z,17.77
2022-12-12T08:15:35.468Z,17.10
2022-12-12T08:18:02.590Z,15.98
2022-12-12T08:20:29.452Z,15.10
2022-12-12T08:22:56.078Z,21.42
2022-12-12T08:25:22.739Z,20.17
2022-12-12T08:27:49.443Z,20.25
2022-12-12T08:30:16.544Z,14.32
2022-12-12T08:32:43.380Z,18.17
2022-12-12T08:35:10.351Z,17.02
2022-12-12T08:37:37.086Z,18.75
2022-12-12T08:40:04.114Z,28.00
2022-12-12T08:42:30.777Z,21.15
2022-12-12T08:44:57.445Z,27.50
2022-12-12T08:47:24.119Z,20.02
2022-12-12T08:49:51.260Z,20.25
2022-12-12T08:52:17.900Z,14.65
2022-12-12T08:54:44.536Z,18.55
2022-12-12T08:57:13.289Z,16.23
2022-12-12T08:59:39.911Z,17.17
2022-12-12T09:02:06.849Z,17.13
2022-12-12T09:04:34.853Z,16.15
2022-12-12T09:07:08.135Z,17.95
2022-12-12T09:09:35.308Z,21.40
2022-12-12T09:12:02.226Z,18.73
2022-12-12T09:14:28.922Z,18.70
2022-12-12T09:16:55.782Z,31.30
2022-12-12T09:19:22.519Z,25.00
2022-12-12T09:21:49.234Z,35.35
2022-12-12T09:24:16.869Z,20.58
2022-12-12T09:26:43.508Z,20.40
2022-12-12T09:29:11.061Z,32.13
2022-12-12T09:31:37.774Z,23.58
2022-12-12T09:34:04.509Z,24.45
2022-12-12T09:36:31.207Z,20.77
2022-12-12T09:38:57.825Z,17.20
2022-12-12T09:41:30.752Z,17.25
2022-12-12T09:44:08.702Z,16.58
2022-12-12T09:46:43.968Z,17.25
2022-12-12T09:49:19.416Z,24.52
2022-12-12T09:51:49.511Z,31.75
2022-12-12T09:54:21.667Z,29.33
2022-12-12T09:57:00.279Z,17.33
2022-12-12T09:59:51.846Z,19.27
2022-12-12T10:02:40.173Z,23.38
2022-12-12T10:05:21.992Z,20.10
2022-12-12T10:07:54.017Z,17.83
2022-12-12T10:10:29.140Z,19.80
2022-12-12T10:12:58.545Z,14.90
2022-12-12T10:15:36.822Z,23.90
2022-12-12T10:18:08.025Z,19.20
2022-12-12T10:20:43.720Z,17.15
2022-12-12T10:23:47.730Z,15.75
2022-12-12T10:26:20.438Z,16.77
2022-12-12T10:28:51.579Z,16.67
2022-12-12T10:31:39.605Z,20.92
2022-12-12T10:34:25.009Z,23.15
2022-12-12T10:37:32.919Z,14.77
2022-12-12T10:40:15.019Z,13.30
2022-12-12T10:42:52.146Z,17.33
2022-12-12T10:46:03.227Z,16.33
2022-12-12T10:48:30.019Z,21.00
2022-12-12T10:51:12.046Z,17.42
2022-12-12T10:53:41.167Z,20.25
2022-12-12T10:56:12.483Z,23.35
2022-12-12T10:58:42.056Z,18.85
2022-12-12T11:01:28.190Z,23.75
2022-12-12T11:04:06.089Z,23.38
2022-12-12T11:06:45.147Z,22.42
2022-12-12T11:09:17.703Z,22.50
2022-12-12T11:12:04.952Z,21.50
2022-12-12T11:14:37.445Z,17.02
2022-12-12T11:19:46.107Z,18.92
2022-12-12T11:22:13.968Z,16.40
2022-12-12T11:24:45.508Z,20.63
2022-12-12T11:27:25.594Z,19.03
2022-12-12T11:29:56.207Z,18.73
2022-12-12T11:32:45.116Z,25.90
2022-12-12T11:35:35.816Z,26.08
2022-12-12T11:38:26.689Z,19.27
2022-12-12T11:41:01.351Z,27.45
2022-12-12T11:43:35.812Z,24.67
2022-12-12T11:46:13.541Z,28.70
2022-12-12T11:48:43.107Z,20.85
2022-12-12T11:51:11.047Z,22.15
2022-12-12T11:53:41.653Z,25.02
2022-12-12T11:56:40.687Z,24.20
2022-12-12T11:59:32.595Z,25.65
2022-12-12T12:01:59.396Z,32.35
2022-12-12T12:04:33.873Z,25.08
2022-12-12T12:07:46.841Z,27.00
2022-12-12T12:10:26.311Z,32.08
2022-12-12T12:12:55.999Z,30.42
2022-12-12T12:15:34.697Z,28.63
2022-12-12T12:18:10.096Z,28.45
2022-12-12T12:21:21.183Z,26.58
2022-12-12T12:24:05.705Z,28.10
2022-12-12T12:27:18.703Z,30.20
2022-12-12T12:30:02.526Z,27.67
2022-12-12T12:32:54.145Z,29.52
2022-12-12T12:35:31.059Z,18.92
2022-12-12T12:38:00.742Z,26.02
2022-12-12T12:40:47.857Z,37.22
2022-12-12T12:43:42.387Z,29.23
2022-12-12T12:46:21.360Z,28.73
2022-12-12T12:48:53.561Z,26.00
2022-12-12T12:51:37.327Z,23.63
2022-12-12T12:54:11.973Z,23.50
2022-12-12T12:56:51.379Z,23.33
2022-12-12T12:59:23.641Z,26.27
2022-12-12T13:01:53.814Z,23.88
2022-12-12T13:04:44.051Z,21.13
2022-12-12T13:07:21.702Z,24.85
2022-12-12T13:10:00.418Z,24.63
2022-12-12T13:12:35.741Z,26.85
2022-12-12T13:15:08.028Z,37.20
2022-12-12T13:18:05.427Z,31.33
2022-12-12T13:20:43.549Z,29.58
2022-12-12T13:23:37.381Z,31.15
2022-12-12T13:26:15.705Z,20.33
2022-12-12T13:29:09.565Z,31.77
2022-12-12T13:32:15.256Z,26.45
2022-12-12T13:34:47.099Z,29.23
2022-12-12T13:37:20.527Z,27.83
2022-12-12T13:39:57.580Z,28.20
2022-12-12T13:42:24.335Z,30.65
2022-12-12T13:44:50.992Z,22.10
2022-12-12T13:47:23.293Z,23.60
2022-12-12T13:50:06.967Z,26.30
2022-12-12T13:52:42.395Z,23.88
2022-12-12T13:55:11.844Z,28.17
2022-12-12T13:58:19.545Z,31.75
2022-12-12T14:00:47.041Z,25.05
2022-12-12T14:03:13.735Z,23.52
2022-12-12T14:05:52.453Z,26.42
2022-12-12T14:08:23.882Z,29.35
2022-12-12T14:10:55.977Z,28.95
2022-12-12T14:13:23.168Z,26.35
2022-12-12T14:16:03.499Z,28.92
2022-12-12T14:18:31.811Z,28.55
2022-12-12T14:21:03.984Z,28.95
2022-12-12T14:23:47.940Z,25.38
2022-12-12T14:26:29.503Z,26.70
2022-12-12T14:29:17.753Z,23.33
2022-12-12T14:32:01.505Z,22.48
2022-12-12T14:35:12.542Z,21.02
2022-12-12T14:37:39.153Z,19.73
2022-12-12T14:40:27.627Z,21.45
2022-12-12T14:43:18.793Z,18.98
2022-12-12T14:45:51.341Z,18.95
2022-12-12T14:48:24.968Z,20.63
2022-12-12T14:51:12.054Z,28.47
2022-12-12T14:53:38.721Z,22.88
2022-12-12T14:56:13.180Z,19.10
2022-12-12T14:59:00.542Z,21.00
2022-12-12T15:01:34.511Z,15.88
2022-12-12T15:04:08.446Z,14.73
2022-12-12T15:06:43.090Z,17.20
2022-12-12T15:09:21.814Z,14.75
2022-12-12T15:11:49.123Z,15.55
2022-12-12T15:14:25.965Z,16.58
2022-12-12T15:17:01.567Z,15.95
2022-12-12T15:19:34.822Z,21.05
2022-12-12T15:22:01.991Z,18.13
2022-12-12T15:24:37.298Z,20.95
2022-12-12T15:27:05.749Z,20.88
2022-12-12T15:29:33.750Z,22.02
2022-12-12T15:32:09.518Z,20.80
2022-12-12T15:34:37.896Z,16.38
2022-12-12T15:37:29.511Z,20.65
2022-12-12T15:40:05.085Z,20.38
2022-12-12T15:42:33.245Z,19.48
2022-12-12T15:45:00.493Z,16.55
2022-12-12T15:47:27.216Z,17.42
2022-12-12T15:49:53.932Z,16.25
2022-12-12T15:52:31.529Z,17.23
2022-12-12T15:55:03.149Z,25.75
2022-12-12T15:57:34.378Z,28.33
2022-12-12T16:00:06.224Z,25.90
2022-12-12T16:02:35.678Z,21.63
2022-12-12T16:05:19.278Z,21.67
2022-12-12T16:07:45.948Z,28.77
2022-12-12T16:10:15.816Z,36.17
2022-12-12T16:13:17.836Z,24.92
2022-12-12T16:15:44.422Z,21.52
2022-12-12T16:18:13.824Z,19.50
2022-12-12T16:20:55.554Z,20.25
2022-12-12T16:23:22.918Z,22.83
2022-12-12T16:25:50.123Z,24.00
2022-12-12T16:28:25.883Z,24.23
2022-12-12T16:30:55.753Z,22.70
2022-12-12T16:33:30.218Z,22.65
2022-12-12T16:36:00.646Z,23.58
2022-12-12T16:38:32.377Z,19.55
2022-12-12T16:41:01.236Z,13.07
2022-12-12T16:43:29.206Z,14.23
2022-12-12T16:45:56.850Z,12.00
2022-12-12T16:48:41.848Z,10.88
2022-12-12T16:51:14.799Z,13.73
2022-12-12T16:53:41.458Z,11.90
2022-12-12T16:56:10.321Z,19.83
2022-12-12T16:58:37.567Z,20.63
2022-12-12T17:01:05.641Z,20.65
2022-12-12T17:03:32.999Z,20.38
2022-12-12T17:06:00.161Z,26.70
2022-12-12T17:08:27.493Z,73.10
2022-12-12T17:11:09.515Z,47.92
2022-12-12T17:13:37.644Z,35.10
2022-12-12T17:16:04.626Z,33.53
2022-12-12T17:18:32.316Z,39.40
2022-12-12T17:20:58.947Z,21.80
2022-12-12T17:23:28.309Z,30.95
2022-12-12T17:26:01.036Z,19.92
2022-12-12T17:28:30.803Z,29.40
2022-12-12T17:30:57.659Z,25.67
2022-12-12T17:33:24.397Z,19.20
2022-12-12T17:36:02.387Z,26.50
2022-12-12T17:38:30.531Z,26.67
2022-12-12T17:40:58.771Z,25.33
2022-12-12T17:43:26.165Z,21.95
2022-12-12T17:46:01.069Z,22.05
2022-12-12T17:48:30.090Z,21.52
2022-12-12T17:50:58.631Z,23.67
2022-12-12T17:53:25.520Z,23.50
2022-12-12T17:56:01.217Z,30.75
2022-12-12T17:58:35.448Z,24.83
2022-12-12T18:01:13.213Z,16.55
2022-12-12T18:03:40.856Z,22.05
2022-12-12T18:06:07.676Z,16.58
2022-12-12T18:08:34.723Z,20.88
2022-12-12T18:11:01.596Z,25.23
2022-12-12T18:13:28.358Z,16.20
2022-12-12T18:15:59.527Z,17.35
2022-12-12T18:18:29.857Z,23.13
2022-12-12T18:20:56.667Z,23.75
2022-12-12T18:23:23.311Z,19.42
2022-12-12T18:25:49.978Z,17.52
2022-12-12T18:28:16.677Z,21.55
2022-12-12T18:30:43.339Z,23.20
2022-12-12T18:33:10.756Z,19.77
2022-12-12T18:35:37.417Z,23.90
2022-12-12T18:38:04.177Z,20.38
2022-12-12T18:40:30.996Z,13.40
2022-12-12T18:42:57.656Z,21.08
2022-12-12T18:45:24.403Z,18.38
2022-12-12T18:47:51.164Z,18.13
2022-12-12T18:50:18.384Z,15.68
2022-12-12T18:52:44.979Z,16.38
2022-12-12T18:55:11.658Z,24.27
2022-12-12T18:57:38.269Z,19.10
2022-12-12T19:00:07.404Z,20.55
2022-12-12T19:02:38.637Z,21.33
2022-12-12T19:05:06.887Z,23.02
2022-12-12T19:07:33.817Z,20.13
2022-12-12T19:10:00.450Z,23.25
2022-12-12T19:12:28.313Z,20.60
2022-12-12T19:17:41.574Z,18.98
2022-12-12T19:20:08.779Z,20.13
2022-12-12T19:22:50.760Z,19.13
2022-12-12T19:25:18.770Z,15.40
2022-12-12T19:27:45.906Z,16.63
2022-12-12T19:30:14.325Z,15.18
2022-12-12T19:32:41.321Z,15.35
2022-12-12T19:35:08.408Z,12.32
2022-12-12T19:37:37.212Z,12.07
2022-12-12T19:40:06.639Z,13.43
2022-12-12T19:42:33.464Z,13.02
2022-12-12T19:45:00.205Z,13.30
2022-12-12T19:47:27.449Z,23.88
2022-12-12T19:49:54.143Z,11.98
2022-12-12T19:52:20.831Z,11.48
2022-12-12T19:54:47.499Z,10.10
2022-12-12T19:57:14.172Z,10.32
2022-12-12T19:59:40.811Z,12.20
2022-12-12T20:02:09.557Z,10.65
2022-12-12T20:04:36.293Z,10.35
2022-12-12T20:07:02.952Z,11.85
2022-12-12T20:09:30.223Z,11.95
2022-12-12T20:12:00.457Z,12.88
2022-12-12T20:14:30.059Z,15.38
2022-12-12T20:16:57.488Z,15.43
2022-12-12T20:19:27.156Z,15.63
2022-12-12T20:22:03.082Z,21.63
2022-12-12T20:24:32.894Z,20.90
2022-12-12T20:27:03.712Z,22.92
2022-12-12T20:29:30.690Z,22.98
2022-12-12T20:31:59.828Z,23.65
2022-12-12T20:34:27.638Z,21.70
2022-12-12T20:36:55.831Z,20.88
2022-12-12T20:39:24.758Z,21.30
2022-12-12T20:41:53.805Z,21.55
2022-12-12T20:44:20.646Z,22.67
2022-12-12T20:46:47.428Z,22.88
2022-12-12T20:49:17.941Z,23.70
2022-12-12T20:51:55.435Z,34.80
2022-12-12T20:54:24.535Z,36.65
2022-12-12T20:56:52.272Z,33.97
2022-12-12T20:59:19.056Z,34.92
2022-12-12T21:01:47.452Z,38.55
2022-12-12T21:04:15.263Z,46.75
2022-12-12T21:06:48.642Z,43.50
2022-12-12T21:09:23.172Z,36.53
2022-12-12T21:11:52.752Z,37.88
2022-12-12T21:14:19.532Z,41.30
2022-12-12T21:16:46.441Z,39.33
2022-12-12T21:19:14.286Z,31.42
2022-12-12T21:21:42.656Z,29.95
2022-12-12T21:24:12.356Z,25.92
2022-12-12T21:26:39.508Z,19.80
2022-12-12T21:29:06.291Z,16.55
2022-12-12T21:31:36.655Z,17.30
2022-12-12T21:34:04.846Z,16.05
2022-12-12T21:36:31.705Z,15.63
2022-12-12T21:39:00.510Z,14.00
2022-12-12T21:41:27.335Z,16.27
2022-12-12T21:43:56.058Z,16.23
2022-12-12T21:46:25.607Z,15.88
2022-12-12T21:49:11.558Z,16.55
2022-12-12T21:51:41.556Z,15.13
2022-12-12T21:54:10.894Z,13.07
2022-12-12T21:56:38.240Z,15.30
2022-12-12T21:59:05.359Z,12.52
2022-12-12T22:01:32.676Z,13.82
2022-12-12T22:04:00.859Z,13.25
2022-12-12T22:06:30.979Z,13.38
2022-12-12T22:08:59.045Z,12.98
2022-12-12T22:11:41.866Z,12.25
2022-12-12T22:14:16.308Z,18.90
2022-12-12T22:16:42.933Z,21.52
2022-12-12T22:19:14.616Z,16.48
2022-12-12T22:21:43.753Z,28.35
2022-12-12T22:24:10.473Z,24.23
2022-12-12T22:26:39.925Z,16.60
2022-12-12T22:29:10.674Z,15.15
2022-12-12T22:31:40.493Z,14.80
2022-12-12T22:34:20.077Z,16.30
2022-12-12T22:36:48.530Z,15.48
2022-12-12T22:39:18.824Z,15.25
2022-12-12T22:41:46.346Z,15.70
2022-12-12T22:44:16.172Z,13.63
2022-12-12T22:46:47.936Z,14.25
2022-12-12T22:49:21.095Z,14.07
2022-12-12T22:51:49.148Z,16.08
2022-12-12T22:54:16.021Z,14.82
2022-12-12T22:56:42.761Z,19.92
2022-12-12T22:59:12.035Z,16.52
2022-12-12T23:01:39.181Z,15.45
2022-12-12T23:04:06.794Z,14.65
2022-12-12T23:06:35.391Z,14.82
2022-12-12T23:09:22.758Z,13.15
2022-12-12T23:11:49.848Z,13.32
2022-12-12T23:14:19.805Z,12.95
2022-12-12T23:16:46.640Z,11.10
2022-12-12T23:19:17.403Z,11.98
2022-12-12T23:21:45.057Z,10.23
2022-12-12T23:24:15.023Z,11.40
2022-12-12T23:26:45.172Z,9.13
2022-12-12T23:29:16.313Z,9.30
2022-12-12T23:31:43.280Z,9.50
2022-12-12T23:34:24.510Z,10.32
2022-12-12T23:36:52.631Z,10.63
2022-12-12T23:39:19.908Z,11.20
2022-12-12T23:41:46.676Z,7.80
2022-12-12T23:44:15.457Z,8.25
2022-12-12T23:46:42.838Z,9.27
2022-12-12T23:49:12.350Z,8.75
2022-12-12T23:51:47.488Z,7.95
2022-12-12T23:54:27.321Z,7.00
2022-12-12T23:56:54.868Z,7.20
2022-12-12T23:59:21.848Z,10.82
